sensor_id;sensor_type;location;lat;lon;timestamp;temperature;humidity
10662;DHT22;5379;51.034;7.006;2022-10-15T00:01:46;19.80;99.90
10662;DHT22;5379;51.034;7.006;2022-10-15T00:04:15;19.80;99.90
10662;DHT22;5379;51.034;7.006;2022-10-15T00:06:42;19.90;99.90
10662;DHT22;5379;51.034;7.006;2022-10-15T00:09:11;19.90;99.90
10662;DHT22;5379;51.034;7.006;2022-10-15T00:11:38;19.80;99.90
10662;DHT22;5379;51.034;7.006;2022-10-15T00:14:05;19.80;99.90
10662;DHT22;5379;51.034;7.006;2022-10-15T00:16:32;19.70;99.90
10662;DHT22;5379;51.034;7.006;2022-10-15T00:18:59;19.80;99.90
10662;DHT22;5379;51.034;7.006;2022-10-15T00:21:27;19.90;99.90
10662;DHT22;5379;51.034;7.006;2022-10-15T00:23:54;19.90;99.90
10662;DHT22;5379;51.034;7.006;2022-10-15T00:26:24;19.90;99.90
10662;DHT22;5379;51.034;7.006;2022-10-15T00:28:53;19.90;99.90
10662;DHT22;5379;51.034;7.006;2022-10-15T00:31:21;19.90;99.90
10662;DHT22;5379;51.034;7.006;2022-10-15T00:33:49;19.90;99.90
10662;DHT22;5379;51.034;7.006;2022-10-15T00:36:19;19.80;99.90
10662;DHT22;5379;51.034;7.006;2022-10-15T00:38:49;19.80;99.90
10662;DHT22;5379;51.034;7.006;2022-10-15T00:41:19;19.80;99.90
10662;DHT22;5379;51.034;7.006;2022-10-15T00:43:52;19.70;99.90
10662;DHT22;5379;51.034;7.006;2022-10-15T00:46:27;19.70;99.90
10662;DHT22;5379;51.034;7.006;2022-10-15T00:49:06;19.70;99.90
10662;DHT22;5379;51.034;7.006;2022-10-15T00:51:51;19.70;99.90
10662;DHT22;5379;51.034;7.006;2022-10-15T00:54:28;19.70;99.90
10662;DHT22;5379;51.034;7.006;2022-10-15T00:57:01;19.70;99.90
10662;DHT22;5379;51.034;7.006;2022-10-15T00:59:31;19.80;99.90
10662;DHT22;5379;51.034;7.006;2022-10-15T01:02:01;19.80;99.90
10662;DHT22;5379;51.034;7.006;2022-10-15T01:04:29;18.20;99.90
10662;DHT22;5379;51.034;7.006;2022-10-15T01:07:00;19.80;99.90
10662;DHT22;5379;51.034;7.006;2022-10-15T01:09:28;19.70;99.90
10662;DHT22;5379;51.034;7.006;2022-10-15T01:12:02;19.50;99.90
10662;DHT22;5379;51.034;7.006;2022-10-15T01:14:48;19.70;99.90
10662;DHT22;5379;51.034;7.006;2022-10-15T01:17:27;19.70;99.90
10662;DHT22;5379;51.034;7.006;2022-10-15T01:20:26;19.70;99.90
10662;DHT22;5379;51.034;7.006;2022-10-15T01:26:03;19.60;99.90
10662;DHT22;5379;51.034;7.006;2022-10-15T01:28:41;19.60;99.90
10662;DHT22;5379;51.034;7.006;2022-10-15T01:31:31;19.60;99.90
10662;DHT22;5379;51.034;7.006;2022-10-15T01:34:05;19.60;99.90
10662;DHT22;5379;51.034;7.006;2022-10-15T01:36:42;19.60;99.90
10662;DHT22;5379;51.034;7.006;2022-10-15T01:39:19;19.60;99.90
10662;DHT22;5379;51.034;7.006;2022-10-15T01:41:51;19.60;99.90
10662;DHT22;5379;51.034;7.006;2022-10-15T01:44:22;19.60;99.90
10662;DHT22;5379;51.034;7.006;2022-10-15T01:46:55;19.60;99.90
10662;DHT22;5379;51.034;7.006;2022-10-15T01:49:27;21.10;99.90
10662;DHT22;5379;51.034;7.006;2022-10-15T01:52:13;19.60;99.90
10662;DHT22;5379;51.034;7.006;2022-10-15T01:54:45;19.60;99.90
10662;DHT22;5379;51.034;7.006;2022-10-15T01:57:15;19.50;99.90
10662;DHT22;5379;51.034;7.006;2022-10-15T01:59:44;19.50;99.90
10662;DHT22;5379;51.034;7.006;2022-10-15T02:02:13;19.50;99.90
10662;DHT22;5379;51.034;7.006;2022-10-15T02:04:40;19.50;99.90
10662;DHT22;5379;51.034;7.006;2022-10-15T02:07:10;19.40;99.90
10662;DHT22;5379;51.034;7.006;2022-10-15T02:09:43;19.40;99.90
10662;DHT22;5379;51.034;7.006;2022-10-15T02:12:30;19.50;99.90
10662;DHT22;5379;51.034;7.006;2022-10-15T02:15:07;19.60;99.90
10662;DHT22;5379;51.034;7.006;2022-10-15T02:17:59;17.80;99.90
10662;DHT22;5379;51.034;7.006;2022-10-15T02:20:32;19.30;99.90
10662;DHT22;5379;51.034;7.006;2022-10-15T02:23:06;19.40;99.90
10662;DHT22;5379;51.034;7.006;2022-10-15T02:25:38;19.40;99.90
10662;DHT22;5379;51.034;7.006;2022-10-15T02:28:15;19.30;99.90
10662;DHT22;5379;51.034;7.006;2022-10-15T02:30:47;19.30;99.90
10662;DHT22;5379;51.034;7.006;2022-10-15T02:33:19;19.40;99.90
10662;DHT22;5379;51.034;7.006;2022-10-15T02:35:49;19.40;99.90
10662;DHT22;5379;51.034;7.006;2022-10-15T02:38:20;20.50;99.90
10662;DHT22;5379;51.034;7.006;2022-10-15T02:40:51;19.40;99.90
10662;DHT22;5379;51.034;7.006;2022-10-15T02:43:40;19.40;99.90
10662;DHT22;5379;51.034;7.006;2022-10-15T02:46:09;19.30;99.90
10662;DHT22;5379;51.034;7.006;2022-10-15T02:48:39;19.40;99.90
10662;DHT22;5379;51.034;7.006;2022-10-15T02:51:06;19.50;99.90
10662;DHT22;5379;51.034;7.006;2022-10-15T02:53:33;19.50;99.90
10662;DHT22;5379;51.034;7.006;2022-10-15T02:56:00;19.50;99.90
10662;DHT22;5379;51.034;7.006;2022-10-15T02:58:27;19.50;99.90
10662;DHT22;5379;51.034;7.006;2022-10-15T03:00:56;19.50;99.90
10662;DHT22;5379;51.034;7.006;2022-10-15T03:03:27;19.50;99.90
10662;DHT22;5379;51.034;7.006;2022-10-15T03:05:58;19.40;99.90
10662;DHT22;5379;51.034;7.006;2022-10-15T03:08:26;19.50;99.90
10662;DHT22;5379;51.034;7.006;2022-10-15T03:10:53;19.50;99.90
10662;DHT22;5379;51.034;7.006;2022-10-15T03:13:20;19.50;99.90
10662;DHT22;5379;51.034;7.006;2022-10-15T03:15:47;20.40;99.90
10662;DHT22;5379;51.034;7.006;2022-10-15T03:18:14;19.50;99.90
10662;DHT22;5379;51.034;7.006;2022-10-15T03:20:41;19.50;99.90
10662;DHT22;5379;51.034;7.006;2022-10-15T03:23:10;19.50;99.90
10662;DHT22;5379;51.034;7.006;2022-10-15T03:25:37;19.60;99.90
10662;DHT22;5379;51.034;7.006;2022-10-15T03:28:04;19.60;99.90
10662;DHT22;5379;51.034;7.006;2022-10-15T03:30:31;19.60;99.90
10662;DHT22;5379;51.034;7.006;2022-10-15T03:32:58;19.60;99.90
10662;DHT22;5379;51.034;7.006;2022-10-15T03:35:25;19.50;99.90
10662;DHT22;5379;51.034;7.006;2022-10-15T03:37:52;19.50;99.90
10662;DHT22;5379;51.034;7.006;2022-10-15T03:40:21;19.50;99.90
10662;DHT22;5379;51.034;7.006;2022-10-15T03:42:49;19.50;99.90
10662;DHT22;5379;51.034;7.006;2022-10-15T03:45:16;19.50;99.90
10662;DHT22;5379;51.034;7.006;2022-10-15T03:47:44;19.50;99.90
10662;DHT22;5379;51.034;7.006;2022-10-15T03:50:11;19.50;99.90
10662;DHT22;5379;51.034;7.006;2022-10-15T03:52:39;19.60;99.90
10662;DHT22;5379;51.034;7.006;2022-10-15T03:55:07;19.50;99.90
10662;DHT22;5379;51.034;7.006;2022-10-15T04:00:40;19.30;99.90
10662;DHT22;5379;51.034;7.006;2022-10-15T04:03:08;18.90;99.90
10662;DHT22;5379;51.034;7.006;2022-10-15T04:05:48;18.70;99.90
10662;DHT22;5379;51.034;7.006;2022-10-15T04:08:17;18.50;99.90
10662;DHT22;5379;51.034;7.006;2022-10-15T04:10:45;18.40;99.90
10662;DHT22;5379;51.034;7.006;2022-10-15T04:13:14;18.30;99.90
10662;DHT22;5379;51.034;7.006;2022-10-15T04:15:47;18.20;99.90
10662;DHT22;5379;51.034;7.006;2022-10-15T04:18:15;18.30;99.90
10662;DHT22;5379;51.034;7.006;2022-10-15T04:20:42;18.20;99.90
10662;DHT22;5379;51.034;7.006;2022-10-15T04:23:09;18.30;99.90
10662;DHT22;5379;51.034;7.006;2022-10-15T04:25:37;18.30;99.90
10662;DHT22;5379;51.034;7.006;2022-10-15T04:28:04;18.40;99.90
10662;DHT22;5379;51.034;7.006;2022-10-15T04:30:31;18.50;99.90
10662;DHT22;5379;51.034;7.006;2022-10-15T04:33:00;18.40;99.90
10662;DHT22;5379;51.034;7.006;2022-10-15T04:35:27;18.50;99.90
10662;DHT22;5379;51.034;7.006;2022-10-15T04:37:56;18.60;99.90
10662;DHT22;5379;51.034;7.006;2022-10-15T04:40:24;18.60;99.90
10662;DHT22;5379;51.034;7.006;2022-10-15T04:42:51;18.60;99.90
10662;DHT22;5379;51.034;7.006;2022-10-15T04:45:18;18.70;99.90
10662;DHT22;5379;51.034;7.006;2022-10-15T04:47:45;18.60;99.90
10662;DHT22;5379;51.034;7.006;2022-10-15T04:50:13;18.70;99.90
10662;DHT22;5379;51.034;7.006;2022-10-15T04:52:41;18.70;99.90
10662;DHT22;5379;51.034;7.006;2022-10-15T04:55:08;18.70;99.90
10662;DHT22;5379;51.034;7.006;2022-10-15T04:57:35;18.70;99.90
10662;DHT22;5379;51.034;7.006;2022-10-15T05:00:07;18.70;99.90
10662;DHT22;5379;51.034;7.006;2022-10-15T05:02:34;18.70;99.90
10662;DHT22;5379;51.034;7.006;2022-10-15T05:05:01;18.70;99.90
10662;DHT22;5379;51.034;7.006;2022-10-15T05:07:29;18.70;99.90
10662;DHT22;5379;51.034;7.006;2022-10-15T05:09:56;18.70;99.90
10662;DHT22;5379;51.034;7.006;2022-10-15T05:12:23;18.70;99.90
10662;DHT22;5379;51.034;7.006;2022-10-15T05:14:50;18.80;99.90
10662;DHT22;5379;51.034;7.006;2022-10-15T05:17:17;18.70;99.90
10662;DHT22;5379;51.034;7.006;2022-10-15T05:19:44;18.80;99.90
10662;DHT22;5379;51.034;7.006;2022-10-15T05:22:12;18.70;99.90
10662;DHT22;5379;51.034;7.006;2022-10-15T05:24:40;18.70;99.90
10662;DHT22;5379;51.034;7.006;2022-10-15T05:27:07;18.80;99.90
10662;DHT22;5379;51.034;7.006;2022-10-15T05:29:34;18.80;99.90
10662;DHT22;5379;51.034;7.006;2022-10-15T05:32:03;18.80;99.90
10662;DHT22;5379;51.034;7.006;2022-10-15T05:34:30;18.80;99.90
10662;DHT22;5379;51.034;7.006;2022-10-15T05:36:58;18.80;99.90
10662;DHT22;5379;51.034;7.006;2022-10-15T05:39:25;18.90;99.90
10662;DHT22;5379;51.034;7.006;2022-10-15T05:41:53;18.90;99.90
10662;DHT22;5379;51.034;7.006;2022-10-15T05:44:20;18.90;99.90
10662;DHT22;5379;51.034;7.006;2022-10-15T05:46:47;18.90;99.90
10662;DHT22;5379;51.034;7.006;2022-10-15T05:49:14;18.90;99.90
10662;DHT22;5379;51.034;7.006;2022-10-15T05:51:44;18.80;99.90
10662;DHT22;5379;51.034;7.006;2022-10-15T05:54:11;18.80;99.90
10662;DHT22;5379;51.034;7.006;2022-10-15T05:56:37;18.80;99.90
10662;DHT22;5379;51.034;7.006;2022-10-15T05:59:06;18.90;99.90
10662;DHT22;5379;51.034;7.006;2022-10-15T06:01:33;18.90;99.90
10662;DHT22;5379;51.034;7.006;2022-10-15T06:04:02;18.90;99.90
10662;DHT22;5379;51.034;7.006;2022-10-15T06:06:29;18.90;99.90
10662;DHT22;5379;51.034;7.006;2022-10-15T06:08:57;19.00;99.90
10662;DHT22;5379;51.034;7.006;2022-10-15T06:11:26;18.90;99.90
10662;DHT22;5379;51.034;7.006;2022-10-15T06:13:53;18.90;99.90
10662;DHT22;5379;51.034;7.006;2022-10-15T06:16:21;18.90;99.90
10662;DHT22;5379;51.034;7.006;2022-10-15T06:18:49;18.90;99.90
10662;DHT22;5379;51.034;7.006;2022-10-15T06:21:17;18.90;99.90
10662;DHT22;5379;51.034;7.006;2022-10-15T06:23:43;18.90;99.90
10662;DHT22;5379;51.034;7.006;2022-10-15T06:26:11;18.90;99.90
10662;DHT22;5379;51.034;7.006;2022-10-15T06:28:38;18.90;99.90
10662;DHT22;5379;51.034;7.006;2022-10-15T06:31:05;18.90;99.90
10662;DHT22;5379;51.034;7.006;2022-10-15T06:33:34;18.90;99.90
10662;DHT22;5379;51.034;7.006;2022-10-15T06:36:03;18.90;99.90
10662;DHT22;5379;51.034;7.006;2022-10-15T06:38:30;19.00;99.90
10662;DHT22;5379;51.034;7.006;2022-10-15T06:40:57;18.90;99.90
10662;DHT22;5379;51.034;7.006;2022-10-15T06:43:24;18.90;99.90
10662;DHT22;5379;51.034;7.006;2022-10-15T06:45:51;18.90;99.90
10662;DHT22;5379;51.034;7.006;2022-10-15T06:48:18;18.80;99.90
10662;DHT22;5379;51.034;7.006;2022-10-15T06:50:47;18.80;99.90
10662;DHT22;5379;51.034;7.006;2022-10-15T06:53:14;18.80;99.90
10662;DHT22;5379;51.034;7.006;2022-10-15T06:55:41;18.80;99.90
10662;DHT22;5379;51.034;7.006;2022-10-15T06:58:08;18.80;99.90
10662;DHT22;5379;51.034;7.006;2022-10-15T07:00:35;18.80;99.90
10662;DHT22;5379;51.034;7.006;2022-10-15T07:03:03;18.90;99.90
10662;DHT22;5379;51.034;7.006;2022-10-15T07:05:31;18.90;99.90
10662;DHT22;5379;51.034;7.006;2022-10-15T07:08:00;18.90;99.90
10662;DHT22;5379;51.034;7.006;2022-10-15T07:10:27;19.00;99.90
10662;DHT22;5379;51.034;7.006;2022-10-15T07:12:54;19.00;99.90
10662;DHT22;5379;51.034;7.006;2022-10-15T07:15:21;19.00;99.90
10662;DHT22;5379;51.034;7.006;2022-10-15T07:17:49;19.00;99.90
10662;DHT22;5379;51.034;7.006;2022-10-15T07:20:17;19.10;99.90
10662;DHT22;5379;51.034;7.006;2022-10-15T07:22:44;19.10;99.90
10662;DHT22;5379;51.034;7.006;2022-10-15T07:25:13;19.20;99.90
10662;DHT22;5379;51.034;7.006;2022-10-15T07:27:40;19.20;99.90
10662;DHT22;5379;51.034;7.006;2022-10-15T07:30:08;19.20;99.90
10662;DHT22;5379;51.034;7.006;2022-10-15T07:32:35;19.20;99.90
10662;DHT22;5379;51.034;7.006;2022-10-15T07:35:02;19.10;99.90
10662;DHT22;5379;51.034;7.006;2022-10-15T07:37:29;19.20;99.90
10662;DHT22;5379;51.034;7.006;2022-10-15T07:39:56;19.20;99.90
10662;DHT22;5379;51.034;7.006;2022-10-15T07:42:25;19.20;99.90
10662;DHT22;5379;51.034;7.006;2022-10-15T07:44:52;19.30;99.90
10662;DHT22;5379;51.034;7.006;2022-10-15T07:47:19;19.30;99.90
10662;DHT22;5379;51.034;7.006;2022-10-15T07:49:46;19.40;99.90
10662;DHT22;5379;51.034;7.006;2022-10-15T07:52:13;19.50;99.90
10662;DHT22;5379;51.034;7.006;2022-10-15T07:54:40;19.60;99.90
10662;DHT22;5379;51.034;7.006;2022-10-15T07:57:07;19.50;99.90
10662;DHT22;5379;51.034;7.006;2022-10-15T07:59:36;19.60;99.90
10662;DHT22;5379;51.034;7.006;2022-10-15T08:02:03;19.60;99.90
10662;DHT22;5379;51.034;7.006;2022-10-15T08:04:30;19.70;99.90
10662;DHT22;5379;51.034;7.006;2022-10-15T08:06:59;19.70;99.90
10662;DHT22;5379;51.034;7.006;2022-10-15T08:09:26;19.80;99.90
10662;DHT22;5379;51.034;7.006;2022-10-15T08:11:53;19.80;99.90
10662;DHT22;5379;51.034;7.006;2022-10-15T08:14:20;19.90;99.90
10662;DHT22;5379;51.034;7.006;2022-10-15T08:16:48;19.80;99.90
10662;DHT22;5379;51.034;7.006;2022-10-15T08:19:15;19.90;99.90
10662;DHT22;5379;51.034;7.006;2022-10-15T08:21:43;19.90;99.90
10662;DHT22;5379;51.034;7.006;2022-10-15T08:24:10;19.90;99.90
10662;DHT22;5379;51.034;7.006;2022-10-15T08:26:37;19.90;99.90
10662;DHT22;5379;51.034;7.006;2022-10-15T08:29:04;19.90;99.90
10662;DHT22;5379;51.034;7.006;2022-10-15T08:31:31;19.90;99.90
10662;DHT22;5379;51.034;7.006;2022-10-15T08:34:00;19.90;99.90
10662;DHT22;5379;51.034;7.006;2022-10-15T08:36:28;20.00;99.90
10662;DHT22;5379;51.034;7.006;2022-10-15T08:38:55;20.20;99.90
10662;DHT22;5379;51.034;7.006;2022-10-15T08:41:26;20.20;99.90
10662;DHT22;5379;51.034;7.006;2022-10-15T08:43:54;20.40;99.90
10662;DHT22;5379;51.034;7.006;2022-10-15T08:46:24;20.40;99.90
10662;DHT22;5379;51.034;7.006;2022-10-15T08:48:56;20.40;99.90
10662;DHT22;5379;51.034;7.006;2022-10-15T08:51:29;20.40;99.90
10662;DHT22;5379;51.034;7.006;2022-10-15T08:53:59;20.50;99.90
10662;DHT22;5379;51.034;7.006;2022-10-15T08:56:31;20.60;99.90
10662;DHT22;5379;51.034;7.006;2022-10-15T08:59:05;20.70;99.90
10662;DHT22;5379;51.034;7.006;2022-10-15T09:01:43;20.70;99.90
10662;DHT22;5379;51.034;7.006;2022-10-15T09:04:23;20.70;99.90
10662;DHT22;5379;51.034;7.006;2022-10-15T09:06:55;20.90;99.90
10662;DHT22;5379;51.034;7.006;2022-10-15T09:09:29;20.90;99.90
10662;DHT22;5379;51.034;7.006;2022-10-15T09:12:05;20.90;99.90
10662;DHT22;5379;51.034;7.006;2022-10-15T09:14:37;20.90;99.90
10662;DHT22;5379;51.034;7.006;2022-10-15T09:17:14;21.00;99.90
10662;DHT22;5379;51.034;7.006;2022-10-15T09:19:45;21.00;99.90
10662;DHT22;5379;51.034;7.006;2022-10-15T09:22:17;21.10;99.90
10662;DHT22;5379;51.034;7.006;2022-10-15T09:24:44;21.10;99.90
10662;DHT22;5379;51.034;7.006;2022-10-15T09:27:18;21.10;99.90
10662;DHT22;5379;51.034;7.006;2022-10-15T09:29:53;21.10;99.90
10662;DHT22;5379;51.034;7.006;2022-10-15T09:32:30;21.10;99.90
10662;DHT22;5379;51.034;7.006;2022-10-15T09:35:00;21.10;99.90
10662;DHT22;5379;51.034;7.006;2022-10-15T09:37:45;21.10;99.90
10662;DHT22;5379;51.034;7.006;2022-10-15T09:40:27;21.20;99.90
10662;DHT22;5379;51.034;7.006;2022-10-15T09:42:56;21.20;99.90
10662;DHT22;5379;51.034;7.006;2022-10-15T09:45:24;21.40;99.90
10662;DHT22;5379;51.034;7.006;2022-10-15T09:47:55;21.30;99.90
10662;DHT22;5379;51.034;7.006;2022-10-15T09:50:28;21.50;99.90
10662;DHT22;5379;51.034;7.006;2022-10-15T09:53:11;21.70;99.90
10662;DHT22;5379;51.034;7.006;2022-10-15T09:55:45;21.70;99.90
10662;DHT22;5379;51.034;7.006;2022-10-15T09:58:17;21.80;99.90
10662;DHT22;5379;51.034;7.006;2022-10-15T10:00:54;21.80;99.90
10662;DHT22;5379;51.034;7.006;2022-10-15T10:03:23;21.90;99.90
10662;DHT22;5379;51.034;7.006;2022-10-15T10:05:58;21.80;99.90
10662;DHT22;5379;51.034;7.006;2022-10-15T10:08:30;21.80;99.90
10662;DHT22;5379;51.034;7.006;2022-10-15T10:10:59;21.90;99.90
10662;DHT22;5379;51.034;7.006;2022-10-15T10:13:29;21.80;99.90
10662;DHT22;5379;51.034;7.006;2022-10-15T10:16:02;21.90;99.90
10662;DHT22;5379;51.034;7.006;2022-10-15T10:18:29;22.00;99.90
10662;DHT22;5379;51.034;7.006;2022-10-15T10:20:59;22.00;99.90
10662;DHT22;5379;51.034;7.006;2022-10-15T10:23:31;22.00;99.90
10662;DHT22;5379;51.034;7.006;2022-10-15T10:26:00;22.10;99.90
10662;DHT22;5379;51.034;7.006;2022-10-15T10:28:32;22.00;99.90
10662;DHT22;5379;51.034;7.006;2022-10-15T10:31:03;22.10;99.90
10662;DHT22;5379;51.034;7.006;2022-10-15T10:33:34;22.20;99.90
10662;DHT22;5379;51.034;7.006;2022-10-15T10:36:02;22.20;99.90
10662;DHT22;5379;51.034;7.006;2022-10-15T10:38:33;22.30;99.90
10662;DHT22;5379;51.034;7.006;2022-10-15T10:41:03;22.40;99.90
10662;DHT22;5379;51.034;7.006;2022-10-15T10:43:33;22.50;99.90
10662;DHT22;5379;51.034;7.006;2022-10-15T10:46:03;22.30;99.90
10662;DHT22;5379;51.034;7.006;2022-10-15T10:48:39;22.30;99.90
10662;DHT22;5379;51.034;7.006;2022-10-15T10:51:11;22.30;99.90
10662;DHT22;5379;51.034;7.006;2022-10-15T10:53:48;22.30;99.90
10662;DHT22;5379;51.034;7.006;2022-10-15T10:56:17;22.30;99.90
10662;DHT22;5379;51.034;7.006;2022-10-15T10:58:48;22.40;99.90
10662;DHT22;5379;51.034;7.006;2022-10-15T11:01:18;22.40;99.90
10662;DHT22;5379;51.034;7.006;2022-10-15T11:03:45;22.30;99.90
10662;DHT22;5379;51.034;7.006;2022-10-15T11:06:49;22.30;99.90
10662;DHT22;5379;51.034;7.006;2022-10-15T11:09:39;22.40;99.90
10662;DHT22;5379;51.034;7.006;2022-10-15T11:12:27;22.40;99.90
10662;DHT22;5379;51.034;7.006;2022-10-15T11:15:02;22.50;99.90
10662;DHT22;5379;51.034;7.006;2022-10-15T11:17:40;22.50;99.90
10662;DHT22;5379;51.034;7.006;2022-10-15T11:20:16;22.60;99.90
10662;DHT22;5379;51.034;7.006;2022-10-15T11:22:58;22.70;99.90
10662;DHT22;5379;51.034;7.006;2022-10-15T11:25:36;22.70;99.90
10662;DHT22;5379;51.034;7.006;2022-10-15T11:28:22;22.80;99.90
10662;DHT22;5379;51.034;7.006;2022-10-15T11:30:58;22.70;99.90
10662;DHT22;5379;51.034;7.006;2022-10-15T11:33:49;22.80;99.90
10662;DHT22;5379;51.034;7.006;2022-10-15T11:36:31;22.80;99.90
10662;DHT22;5379;51.034;7.006;2022-10-15T11:39:17;22.80;99.90
10662;DHT22;5379;51.034;7.006;2022-10-15T11:41:57;22.80;99.90
10662;DHT22;5379;51.034;7.006;2022-10-15T11:44:33;22.90;99.90
10662;DHT22;5379;51.034;7.006;2022-10-15T11:47:13;22.90;99.90
10662;DHT22;5379;51.034;7.006;2022-10-15T11:49:54;22.90;99.90
10662;DHT22;5379;51.034;7.006;2022-10-15T11:52:35;23.00;99.90
10662;DHT22;5379;51.034;7.006;2022-10-15T11:55:09;23.00;99.90
10662;DHT22;5379;51.034;7.006;2022-10-15T11:57:40;23.00;99.90
10662;DHT22;5379;51.034;7.006;2022-10-15T12:00:18;23.00;99.90
10662;DHT22;5379;51.034;7.006;2022-10-15T12:02:48;23.00;99.90
10662;DHT22;5379;51.034;7.006;2022-10-15T12:05:18;23.00;99.90
10662;DHT22;5379;51.034;7.006;2022-10-15T12:07:48;23.00;99.90
10662;DHT22;5379;51.034;7.006;2022-10-15T12:10:28;23.10;99.90
10662;DHT22;5379;51.034;7.006;2022-10-15T12:13:05;23.10;99.90
10662;DHT22;5379;51.034;7.006;2022-10-15T12:15:40;23.80;99.90
10662;DHT22;5379;51.034;7.006;2022-10-15T12:18:17;23.20;99.90
10662;DHT22;5379;51.034;7.006;2022-10-15T12:20:46;23.20;99.90
10662;DHT22;5379;51.034;7.006;2022-10-15T12:23:26;23.30;99.90
10662;DHT22;5379;51.034;7.006;2022-10-15T12:26:26;23.30;99.90
10662;DHT22;5379;51.034;7.006;2022-10-15T12:28:57;23.30;99.90
10662;DHT22;5379;51.034;7.006;2022-10-15T12:31:24;23.30;99.90
10662;DHT22;5379;51.034;7.006;2022-10-15T12:33:53;23.40;99.90
10662;DHT22;5379;51.034;7.006;2022-10-15T12:36:23;23.40;99.90
10662;DHT22;5379;51.034;7.006;2022-10-15T12:38:56;23.40;99.90
10662;DHT22;5379;51.034;7.006;2022-10-15T12:41:36;23.40;99.90
10662;DHT22;5379;51.034;7.006;2022-10-15T12:44:14;23.40;99.90
10662;DHT22;5379;51.034;7.006;2022-10-15T12:46:42;23.40;99.90
10662;DHT22;5379;51.034;7.006;2022-10-15T12:55:30;23.40;99.90
10662;DHT22;5379;51.034;7.006;2022-10-15T12:58:03;23.40;99.90
10662;DHT22;5379;51.034;7.006;2022-10-15T13:00:42;23.50;99.90
10662;DHT22;5379;51.034;7.006;2022-10-15T13:03:15;23.50;99.90
10662;DHT22;5379;51.034;7.006;2022-10-15T13:05:43;23.50;99.90
10662;DHT22;5379;51.034;7.006;2022-10-15T13:08:14;23.50;99.90
10662;DHT22;5379;51.034;7.006;2022-10-15T13:10:46;23.50;99.90
10662;DHT22;5379;51.034;7.006;2022-10-15T13:13:18;23.40;99.90
10662;DHT22;5379;51.034;7.006;2022-10-15T13:15:58;23.50;99.90
10662;DHT22;5379;51.034;7.006;2022-10-15T13:18:28;23.50;99.90
10662;DHT22;5379;51.034;7.006;2022-10-15T13:20:57;23.60;99.90
10662;DHT22;5379;51.034;7.006;2022-10-15T13:23:25;23.60;99.90
10662;DHT22;5379;51.034;7.006;2022-10-15T13:26:14;23.60;99.90
10662;DHT22;5379;51.034;7.006;2022-10-15T13:28:42;23.60;99.90
10662;DHT22;5379;51.034;7.006;2022-10-15T13:31:18;23.70;99.90
10662;DHT22;5379;51.034;7.006;2022-10-15T13:33:49;23.70;99.90
10662;DHT22;5379;51.034;7.006;2022-10-15T13:36:20;23.60;99.90
10662;DHT22;5379;51.034;7.006;2022-10-15T13:38:57;23.60;99.90
10662;DHT22;5379;51.034;7.006;2022-10-15T13:41:26;23.60;99.90
10662;DHT22;5379;51.034;7.006;2022-10-15T13:43:54;23.70;99.90
10662;DHT22;5379;51.034;7.006;2022-10-15T13:46:26;23.70;99.90
10662;DHT22;5379;51.034;7.006;2022-10-15T13:48:58;23.70;99.90
10662;DHT22;5379;51.034;7.006;2022-10-15T13:51:36;23.70;99.90
10662;DHT22;5379;51.034;7.006;2022-10-15T13:54:08;23.70;99.90
10662;DHT22;5379;51.034;7.006;2022-10-15T13:56:41;23.70;99.90
10662;DHT22;5379;51.034;7.006;2022-10-15T13:59:14;24.50;99.90
10662;DHT22;5379;51.034;7.006;2022-10-15T14:01:47;23.70;99.90
10662;DHT22;5379;51.034;7.006;2022-10-15T14:04:15;23.60;99.90
10662;DHT22;5379;51.034;7.006;2022-10-15T14:06:52;23.70;99.90
10662;DHT22;5379;51.034;7.006;2022-10-15T14:09:22;23.80;99.90
10662;DHT22;5379;51.034;7.006;2022-10-15T14:11:51;23.80;99.90
10662;DHT22;5379;51.034;7.006;2022-10-15T14:14:30;23.80;99.90
10662;DHT22;5379;51.034;7.006;2022-10-15T14:17:00;23.80;99.90
10662;DHT22;5379;51.034;7.006;2022-10-15T14:19:29;23.80;99.90
10662;DHT22;5379;51.034;7.006;2022-10-15T14:21:59;23.80;99.90
10662;DHT22;5379;51.034;7.006;2022-10-15T14:24:31;23.80;99.90
10662;DHT22;5379;51.034;7.006;2022-10-15T14:27:11;23.80;99.90
10662;DHT22;5379;51.034;7.006;2022-10-15T14:29:41;23.80;99.90
10662;DHT22;5379;51.034;7.006;2022-10-15T14:32:25;23.80;99.90
10662;DHT22;5379;51.034;7.006;2022-10-15T14:34:53;23.70;99.90
10662;DHT22;5379;51.034;7.006;2022-10-15T14:37:41;23.80;99.90
10662;DHT22;5379;51.034;7.006;2022-10-15T14:40:17;23.80;99.90
10662;DHT22;5379;51.034;7.006;2022-10-15T14:42:46;23.90;99.90
10662;DHT22;5379;51.034;7.006;2022-10-15T14:45:19;23.90;99.90
10662;DHT22;5379;51.034;7.006;2022-10-15T14:47:49;23.90;99.90
10662;DHT22;5379;51.034;7.006;2022-10-15T14:50:17;23.90;99.90
10662;DHT22;5379;51.034;7.006;2022-10-15T14:52:47;23.90;99.90
10662;DHT22;5379;51.034;7.006;2022-10-15T14:55:22;23.90;99.90
10662;DHT22;5379;51.034;7.006;2022-10-15T14:57:51;23.90;99.90
10662;DHT22;5379;51.034;7.006;2022-10-15T15:00:24;23.90;99.90
10662;DHT22;5379;51.034;7.006;2022-10-15T15:02:54;23.90;99.90
10662;DHT22;5379;51.034;7.006;2022-10-15T15:05:24;23.90;99.90
10662;DHT22;5379;51.034;7.006;2022-10-15T15:07:52;23.90;99.90
10662;DHT22;5379;51.034;7.006;2022-10-15T15:10:21;23.90;99.90
10662;DHT22;5379;51.034;7.006;2022-10-15T15:12:51;23.90;99.90
10662;DHT22;5379;51.034;7.006;2022-10-15T15:15:20;23.90;99.90
10662;DHT22;5379;51.034;7.006;2022-10-15T15:17:47;23.90;99.90
10662;DHT22;5379;51.034;7.006;2022-10-15T15:20:17;23.90;99.90
10662;DHT22;5379;51.034;7.006;2022-10-15T15:22:46;23.90;99.90
10662;DHT22;5379;51.034;7.006;2022-10-15T15:25:17;23.90;99.90
10662;DHT22;5379;51.034;7.006;2022-10-15T15:27:44;24.00;99.90
10662;DHT22;5379;51.034;7.006;2022-10-15T15:30:16;23.90;99.90
10662;DHT22;5379;51.034;7.006;2022-10-15T15:32:44;23.90;99.90
10662;DHT22;5379;51.034;7.006;2022-10-15T15:35:32;23.80;99.90
10662;DHT22;5379;51.034;7.006;2022-10-15T15:38:01;23.60;99.90
10662;DHT22;5379;51.034;7.006;2022-10-15T15:40:29;23.60;99.90
10662;DHT22;5379;51.034;7.006;2022-10-15T15:42:57;23.50;99.90
10662;DHT22;5379;51.034;7.006;2022-10-15T15:45:26;23.50;99.90
10662;DHT22;5379;51.034;7.006;2022-10-15T15:47:54;23.50;99.90
10662;DHT22;5379;51.034;7.006;2022-10-15T15:50:23;23.30;99.90
10662;DHT22;5379;51.034;7.006;2022-10-15T15:52:51;23.20;99.90
10662;DHT22;5379;51.034;7.006;2022-10-15T15:55:19;23.20;99.90
10662;DHT22;5379;51.034;7.006;2022-10-15T15:57:46;23.20;99.90
10662;DHT22;5379;51.034;7.006;2022-10-15T16:00:13;23.20;99.90
10662;DHT22;5379;51.034;7.006;2022-10-15T16:02:41;22.90;99.90
10662;DHT22;5379;51.034;7.006;2022-10-15T16:05:11;22.90;99.90
10662;DHT22;5379;51.034;7.006;2022-10-15T16:07:39;22.90;99.90
10662;DHT22;5379;51.034;7.006;2022-10-15T16:10:08;22.90;99.90
10662;DHT22;5379;51.034;7.006;2022-10-15T16:12:37;22.90;99.90
10662;DHT22;5379;51.034;7.006;2022-10-15T16:15:04;22.90;99.90
10662;DHT22;5379;51.034;7.006;2022-10-15T16:17:32;22.90;99.90
10662;DHT22;5379;51.034;7.006;2022-10-15T16:19:59;22.90;99.90
10662;DHT22;5379;51.034;7.006;2022-10-15T16:22:28;22.80;99.90